Înnorat
Cer parțial înnorat, cu nori Cirrus
Cer parțial înnorat, cu nori Cirrus
Ploaie ușoară, posibil furtuni
Ploaie ușoară, posibil furtuni
Ploaie ușoară, posibil furtuni
Ploaie ușoară, posibil furtuni
(°C)
16°
16°
17°
17°
17°
17°
18°
18°
18°
18°
19°
19°
19°
19°
(°C)
14°
15°
16°
16°
17°
17°
17°
SE
SSE
E
ESE
SE
ESE
SE
(km/h)
13-27
11-26
12-30
12-26
12-27
12-26
12-29
(mm)
0
0
0
0.9
0.4
1.6
2
(%)
30
30
64
81
82
87
88

Elevația soarelui

/ 39.7°
sun-icon
UV 4
05:02
20:56
Luna gibboasă în scădere (192°)
22:41
05:00

METAR pentru 50.1°N 14.27°E (LKPR)

Ora Condiții Temperatură/
Punctul de rouă
Vânt Vizibilitate Vremea Nori Presiune Schimbă Brut
VFR 16°C / 12°C 100º variable 070º to 150º 7kt 9700m - Few Clouds 1700ft 1018 Temporary: Visibility 6000. Showers Rain . Scattered Clouds 1700ft. Cumulonimbus LKPR 240700Z 10007KT 070V150 9999 FEW017 16/12 Q1018 TEMPO 6000 SHRA SCT017CB
VFR 15°C / 12°C 50º 7kt 9700m - Clouds and Visibility OK 1018 Temporary: Scattered Clouds 2500ft. Towering Cumulus LKPR 240630Z 05007KT CAVOK 15/12 Q1018 TEMPO SCT025TCU
VFR 15°C / 12°C 360º 4kt 9700m - Clouds and Visibility OK 1017 No Significant change LKPR 240600Z 36004KT CAVOK 15/12 Q1017 NOSIG
VFR 14°C / 12°C 360º 3kt 9700m - Clouds and Visibility OK 1017 No Significant change LKPR 240530Z 36003KT CAVOK 14/12 Q1017 NOSIG
VFR 14°C / 11°C 2kt 9700m - Clouds and Visibility OK 1017 No Significant change LKPR 240500Z VRB02KT CAVOK 14/11 Q1017 NOSIG
VFR 13°C / 11°C 350º variable 300º to 360º 3kt 9700m - Few Clouds 4300ft 1017 No Significant change LKPR 240430Z 35003KT 300V360 9999 FEW043 13/11 Q1017 NOSIG
VFR 11°C / 10°C 2kt 9700m - Few Clouds 4000ft 1017 No Significant change LKPR 240400Z VRB02KT 9999 FEW040 11/10 Q1017 NOSIG
VFR 10°C / 9°C 240º 3kt 9700m - Few Clouds 4000ft 1017 No Significant change LKPR 240330Z 24003KT 9999 FEW040 10/09 Q1017 NOSIG
VFR 10°C / 9°C 240º 4kt 9700m - Few Clouds 3000ft 1017 No Significant change LKPR 240300Z 24004KT 9999 FEW030TCU 10/09 Q1017 NOSIG
VFR 10°C / 9°C 2kt 9700m - Few Clouds 4200ft 1017 No Significant change LKPR 240230Z VRB02KT 9999 FEW042 10/09 Q1017 NOSIG
VFR 10°C / 9°C variable 0kt 9700m - Clouds and Visibility OK 1017 No Significant change LKPR 240200Z 00000KT CAVOK 10/09 Q1017 NOSIG
VFR 10°C / 8°C 220º variable 170º to 240º 3kt 9700m - Clouds and Visibility OK 1017 No Significant change LKPR 240130Z 22003KT 170V240 CAVOK 10/08 Q1017 NOSIG
VFR 11°C / 9°C 2kt 9700m - Clouds and Visibility OK 1017 No Significant change LKPR 240100Z VRB02KT CAVOK 11/09 Q1017 NOSIG
VFR 11°C / 9°C 330º 1kt 9700m - Clouds and Visibility OK 1017 No Significant change LKPR 240030Z 33001KT CAVOK 11/09 Q1017 NOSIG
VFR 11°C / 9°C 60º 3kt 9700m - Clouds and Visibility OK 1017 No Significant change LKPR 240000Z 06003KT CAVOK 11/09 Q1017 NOSIG
VFR 13°C / 9°C 2kt 9700m - Clouds and Visibility OK 1017 No Significant change LKPR 232330Z VRB02KT CAVOK 13/09 Q1017 NOSIG
VFR 14°C / 9°C 20º variable 340º to 050º 4kt 9700m - Clouds and Visibility OK 1017 No Significant change LKPR 232300Z 02004KT 340V050 CAVOK 14/09 Q1017 NOSIG
VFR 13°C / 9°C 20º 2kt 9700m - Clouds and Visibility OK 1017 No Significant change LKPR 232230Z 02002KT CAVOK 13/09 Q1017 NOSIG
VFR 13°C / 9°C variable 0kt 9700m - Clouds and Visibility OK 1017 No Significant change LKPR 232200Z 00000KT CAVOK 13/09 Q1017 NOSIG
VFR 15°C / 9°C 2kt 9700m - Clouds and Visibility OK 1017 No Significant change LKPR 232130Z VRB02KT CAVOK 15/09 Q1017 NOSIG
VFR 14°C / 9°C 60º 3kt 9700m - Clouds and Visibility OK 1017 No Significant change LKPR 232100Z 06003KT CAVOK 14/09 Q1017 NOSIG
VFR 14°C / 9°C 90º 6kt 9700m - Clouds and Visibility OK 1017 No Significant change LKPR 232030Z 09006KT CAVOK 14/09 Q1017 NOSIG
VFR 16°C / 10°C 50º 6kt 9700m - Clouds and Visibility OK 1017 No Significant change LKPR 232000Z 05006KT CAVOK 16/10 Q1017 NOSIG
VFR 15°C / 10°C 90º 6kt 9700m - Clouds and Visibility OK 1017 No Significant change LKPR 231930Z 09006KT CAVOK 15/10 Q1017 NOSIG

VFR

16°C / 12°C

[Mai mult]
Vânt 100º variable 070º to 150º 7kt
Vizibilitate 9700m
Vremea -
Nori Few Clouds 1700ft
Presiune 1018
Schimbă Temporary: Visibility 6000. Showers Rain . Scattered Clouds 1700ft. Cumulonimbus
Brut LKPR 240700Z 10007KT 070V150 9999 FEW017 16/12 Q1018 TEMPO 6000 SHRA SCT017CB

VFR

15°C / 12°C

[Mai mult]
Vânt 50º 7kt
Vizibilitate 9700m
Vremea -
Nori Clouds and Visibility OK
Presiune 1018
Schimbă Temporary: Scattered Clouds 2500ft. Towering Cumulus
Brut LKPR 240630Z 05007KT CAVOK 15/12 Q1018 TEMPO SCT025TCU

VFR

15°C / 12°C

[Mai mult]
Vânt 360º 4kt
Vizibilitate 9700m
Vremea -
Nori Clouds and Visibility OK
Presiune 1017
Schimbă No Significant change
Brut LKPR 240600Z 36004KT CAVOK 15/12 Q1017 NOSIG

VFR

14°C / 12°C

[Mai mult]
Vânt 360º 3kt
Vizibilitate 9700m
Vremea -
Nori Clouds and Visibility OK
Presiune 1017
Schimbă No Significant change
Brut LKPR 240530Z 36003KT CAVOK 14/12 Q1017 NOSIG

VFR

14°C / 11°C

[Mai mult]
Vânt 2kt
Vizibilitate 9700m
Vremea -
Nori Clouds and Visibility OK
Presiune 1017
Schimbă No Significant change
Brut LKPR 240500Z VRB02KT CAVOK 14/11 Q1017 NOSIG

VFR

13°C / 11°C

[Mai mult]
Vânt 350º variable 300º to 360º 3kt
Vizibilitate 9700m
Vremea -
Nori Few Clouds 4300ft
Presiune 1017
Schimbă No Significant change
Brut LKPR 240430Z 35003KT 300V360 9999 FEW043 13/11 Q1017 NOSIG

VFR

11°C / 10°C

[Mai mult]
Vânt 2kt
Vizibilitate 9700m
Vremea -
Nori Few Clouds 4000ft
Presiune 1017
Schimbă No Significant change
Brut LKPR 240400Z VRB02KT 9999 FEW040 11/10 Q1017 NOSIG

VFR

10°C / 9°C

[Mai mult]
Vânt 240º 3kt
Vizibilitate 9700m
Vremea -
Nori Few Clouds 4000ft
Presiune 1017
Schimbă No Significant change
Brut LKPR 240330Z 24003KT 9999 FEW040 10/09 Q1017 NOSIG

VFR

10°C / 9°C

[Mai mult]
Vânt 240º 4kt
Vizibilitate 9700m
Vremea -
Nori Few Clouds 3000ft
Presiune 1017
Schimbă No Significant change
Brut LKPR 240300Z 24004KT 9999 FEW030TCU 10/09 Q1017 NOSIG

VFR

10°C / 9°C

[Mai mult]
Vânt 2kt
Vizibilitate 9700m
Vremea -
Nori Few Clouds 4200ft
Presiune 1017
Schimbă No Significant change
Brut LKPR 240230Z VRB02KT 9999 FEW042 10/09 Q1017 NOSIG

VFR

10°C / 9°C

[Mai mult]
Vânt variable 0kt
Vizibilitate 9700m
Vremea -
Nori Clouds and Visibility OK
Presiune 1017
Schimbă No Significant change
Brut LKPR 240200Z 00000KT CAVOK 10/09 Q1017 NOSIG

VFR

10°C / 8°C

[Mai mult]
Vânt 220º variable 170º to 240º 3kt
Vizibilitate 9700m
Vremea -
Nori Clouds and Visibility OK
Presiune 1017
Schimbă No Significant change
Brut LKPR 240130Z 22003KT 170V240 CAVOK 10/08 Q1017 NOSIG

VFR

11°C / 9°C

[Mai mult]
Vânt 2kt
Vizibilitate 9700m
Vremea -
Nori Clouds and Visibility OK
Presiune 1017
Schimbă No Significant change
Brut LKPR 240100Z VRB02KT CAVOK 11/09 Q1017 NOSIG

VFR

11°C / 9°C

[Mai mult]
Vânt 330º 1kt
Vizibilitate 9700m
Vremea -
Nori Clouds and Visibility OK
Presiune 1017
Schimbă No Significant change
Brut LKPR 240030Z 33001KT CAVOK 11/09 Q1017 NOSIG

VFR

11°C / 9°C

[Mai mult]
Vânt 60º 3kt
Vizibilitate 9700m
Vremea -
Nori Clouds and Visibility OK
Presiune 1017
Schimbă No Significant change
Brut LKPR 240000Z 06003KT CAVOK 11/09 Q1017 NOSIG

VFR

13°C / 9°C

[Mai mult]
Vânt 2kt
Vizibilitate 9700m
Vremea -
Nori Clouds and Visibility OK
Presiune 1017
Schimbă No Significant change
Brut LKPR 232330Z VRB02KT CAVOK 13/09 Q1017 NOSIG

VFR

14°C / 9°C

[Mai mult]
Vânt 20º variable 340º to 050º 4kt
Vizibilitate 9700m
Vremea -
Nori Clouds and Visibility OK
Presiune 1017
Schimbă No Significant change
Brut LKPR 232300Z 02004KT 340V050 CAVOK 14/09 Q1017 NOSIG

VFR

13°C / 9°C

[Mai mult]
Vânt 20º 2kt
Vizibilitate 9700m
Vremea -
Nori Clouds and Visibility OK
Presiune 1017
Schimbă No Significant change
Brut LKPR 232230Z 02002KT CAVOK 13/09 Q1017 NOSIG

VFR

13°C / 9°C

[Mai mult]
Vânt variable 0kt
Vizibilitate 9700m
Vremea -
Nori Clouds and Visibility OK
Presiune 1017
Schimbă No Significant change
Brut LKPR 232200Z 00000KT CAVOK 13/09 Q1017 NOSIG

VFR

15°C / 9°C

[Mai mult]
Vânt 2kt
Vizibilitate 9700m
Vremea -
Nori Clouds and Visibility OK
Presiune 1017
Schimbă No Significant change
Brut LKPR 232130Z VRB02KT CAVOK 15/09 Q1017 NOSIG

VFR

14°C / 9°C

[Mai mult]
Vânt 60º 3kt
Vizibilitate 9700m
Vremea -
Nori Clouds and Visibility OK
Presiune 1017
Schimbă No Significant change
Brut LKPR 232100Z 06003KT CAVOK 14/09 Q1017 NOSIG

VFR

14°C / 9°C

[Mai mult]
Vânt 90º 6kt
Vizibilitate 9700m
Vremea -
Nori Clouds and Visibility OK
Presiune 1017
Schimbă No Significant change
Brut LKPR 232030Z 09006KT CAVOK 14/09 Q1017 NOSIG

VFR

16°C / 10°C

[Mai mult]
Vânt 50º 6kt
Vizibilitate 9700m
Vremea -
Nori Clouds and Visibility OK
Presiune 1017
Schimbă No Significant change
Brut LKPR 232000Z 05006KT CAVOK 16/10 Q1017 NOSIG

VFR

15°C / 10°C

[Mai mult]
Vânt 90º 6kt
Vizibilitate 9700m
Vremea -
Nori Clouds and Visibility OK
Presiune 1017
Schimbă No Significant change
Brut LKPR 231930Z 09006KT CAVOK 15/10 Q1017 NOSIG

TAF pentru 50.1°N 14.27°E (LKPR)

From till


From till Wind 2kt. Visibility 9700m. Nil Significant Cloud.
Becoming from till
Temporarly from till Visibility 4000m. Showers Rain . Broken Clouds 1600ft.
With 40% probability, Temporarly from till Visibility 2500m. Thunderstorm Rain . Broken Clouds 1200ft.
Becoming from till
Becoming from till
Temporarly from till Visibility 2000m. Mist . Scattered Clouds 500ft.
Becoming from till

Brut: TAF LKPR 240500Z 2406/2512 VRB02KT CAVOK BECMG 2406/2407 9999 SCT025 TEMPO 2407/2418 4000 SHRA BKN016CB PROB40 TEMPO 2407/2414 2500 TSRA BKN012CB BECMG 2418/2420 CAVOK BECMG 2500/2502 5000 BR NSC TEMPO 2502/2507 2000 BR SCT005 BECMG 2507/2509 9999 BKN020 TEMPO 2510/2512 4000 SHRA BKN018CB

Radar și nowcast de precipitații pentru 50.1°N 14.27°E

Burniță
Ușoară
Moderat
Greu
Foarte greu
Grindină

Markerul de locație este plasat în 50.1°N 14.27°E. Această animație arată radarul de precipitații pentru intervalul de timp selectat, precum și o prognoză 2h. Crucile portocalii indică fulgerele. Date furnizate de nowcast.de (disponibile în SUA, Europa, Australia). Ploaia sau ninsoarea slabă ar putea fi invizibilă pentru radar. Intensitatea precipitațiilor este codificată prin culori, de la turcoaz la roșu.

Imagini satelitare și ploaie pentru 50.1°N 14.27°E

Markerul cu locaţia este poziţionat pe 50.1°N 14.27°E. [Mai mult]

Imaginea satelitară în timp real combină lumina vizibilă din timpul zilei cu radiația cu infraroșu din timpul nopții. Pe timp de noapte, imaginea nu este întunecată, deoarece radiația cu infraroșu poate detecta diferențele de temperatură. Din păcate, norii joși și ceața sunt greu de recunoscut față de temperatura de la sol, din această cauză putând fi invizibili pe timp de noapte. Imaginile satelitare Meteosat pentru Europa sunt actualizate în timp real din 5 în 5 minute. Imaginile GOES-16/GOES-17 (America de Nord și de Sud) și Himawari (Asia) sunt actualizate din 10 în 10 minute.

Precipitațiile sunt estimate pe baza radarelor și a sateliților. Estimările de precipitații de la sateliți sunt mai puțin precise pe timp de noapte decât pe timp de zi.

© 2024 meteoblue, NOAA Satellites GOES-16 and EUMETSAT. Datele despre fulgere furnizate de către nowcast.

Mergi sus
×
Bună ziua,
se pare că folosiți un blocant de reclame.

Publicitatea este esențială pentru a menține site-ul nostru gratuit cu detalii și acuratețe unice.

Vă rugăm să whitelist www.meteoblue.com în ad blocker-ul dvs. sau luați în considerare cumpărarea unuia dintre produsele noastre:

Aveți deja un abonament?
Atunci vă rugăm login.